createdAt,value
2022-09-03T00:03:41.155Z,0.05
2022-09-03T00:08:42.303Z,0.05
2022-09-03T00:13:37.125Z,0.05
2022-09-03T00:18:37.025Z,0.05
2022-09-03T00:23:36.657Z,0.05
2022-09-03T00:28:36.072Z,0.05
2022-09-03T00:33:36.190Z,0.05
2022-09-03T00:38:34.812Z,0.05
2022-09-03T00:43:34.136Z,0.05
2022-09-03T00:48:33.579Z,0.05
2022-09-03T00:53:31.041Z,0.05
2022-09-03T00:58:30.830Z,0.05
2022-09-03T00:59:52.643Z,0.05
2022-09-03T01:04:52.645Z,0.05
2022-09-03T01:09:52.318Z,0.05
2022-09-03T01:14:50.701Z,0.05
2022-09-03T01:19:49.068Z,0.05
2022-09-03T01:24:48.482Z,0.05
2022-09-03T01:29:45.993Z,0.05
2022-09-03T01:34:45.161Z,0.05
2022-09-03T01:39:44.378Z,0.05
2022-09-03T01:44:43.712Z,0.05
2022-09-03T01:49:43.064Z,0.05
2022-09-03T01:54:42.410Z,0.05
2022-09-03T01:59:16.044Z,0.05
2022-09-03T02:04:15.419Z,0.05
2022-09-03T02:09:23.941Z,0.05
2022-09-03T02:14:21.583Z,0.05
2022-09-03T02:19:21.148Z,0.05
2022-09-03T02:24:20.474Z,0.05
2022-09-03T02:29:20.036Z,0.05
2022-09-03T02:34:19.266Z,0.05
2022-09-03T02:39:19.428Z,0.05
2022-09-03T02:44:16.759Z,0.05
2022-09-03T02:49:16.558Z,0.05
2022-09-03T02:54:22.521Z,0.05
2022-09-03T02:58:55.650Z,0.05
2022-09-03T03:03:55.577Z,0.05
2022-09-03T03:08:55.111Z,0.05
2022-09-03T03:13:54.477Z,0.05
2022-09-03T03:18:53.544Z,0.05
2022-09-03T03:23:51.701Z,0.05
2022-09-03T03:28:50.571Z,0.05
2022-09-03T03:33:50.098Z,0.05
2022-09-03T03:38:49.891Z,0.05
2022-09-03T03:43:49.428Z,0.05
2022-09-03T03:48:49.610Z,0.05
2022-09-03T03:53:48.537Z,0.05
2022-09-03T03:58:46.857Z,0.05
2022-09-03T04:03:45.654Z,0.05
2022-09-03T04:08:50.187Z,0.05
2022-09-03T04:13:43.980Z,0.05
2022-09-03T04:18:43.150Z,0.05
2022-09-03T04:23:42.873Z,0.06
2022-09-03T04:28:42.441Z,0.06
2022-09-03T04:33:42.095Z,0.07
2022-09-03T04:38:40.648Z,0.08
2022-09-03T04:43:39.708Z,0.11
2022-09-03T04:48:39.926Z,0.13
2022-09-03T04:53:36.949Z,0.19
2022-09-03T04:58:44.130Z,0.23
2022-09-03T05:03:35.375Z,0.26
2022-09-03T05:08:35.177Z,0.29
2022-09-03T05:13:34.052Z,0.26
2022-09-03T05:18:33.343Z,0.33
2022-09-03T05:23:39.198Z,0.4
2022-09-03T05:28:33.198Z,0.52
2022-09-03T05:33:30.271Z,0.73
2022-09-03T05:38:29.179Z,0.91
2022-09-03T05:43:28.299Z,0.82
2022-09-03T05:48:28.275Z,0.87
2022-09-03T05:53:27.902Z,0.91
2022-09-03T05:58:27.297Z,1.03
2022-09-03T05:59:50.345Z,1.07
2022-09-03T06:04:48.841Z,1.14
2022-09-03T06:09:48.780Z,1.44
2022-09-03T06:14:45.750Z,1.88
2022-09-03T06:19:44.605Z,1.86
2022-09-03T06:24:44.580Z,1.79
2022-09-03T06:29:43.886Z,1.45
2022-09-03T06:34:42.903Z,1.62
2022-09-03T06:39:42.955Z,1.59
2022-09-03T06:44:41.890Z,1.81
2022-09-03T06:49:43.166Z,2.58
2022-09-03T06:54:39.214Z,3.17
2022-09-03T06:59:22.065Z,1.9
2022-09-03T07:04:22.869Z,2.4
2022-09-03T07:09:21.274Z,2.78
2022-09-03T07:14:20.107Z,1.37
2022-09-03T07:19:19.133Z,1.4
2022-09-03T07:24:19.027Z,2.28
2022-09-03T07:29:17.479Z,3.25
2022-09-03T07:34:17.442Z,2.93
2022-09-03T07:39:16.532Z,1.81
2022-09-03T07:44:17.115Z,1.16
2022-09-03T07:49:28.787Z,1.67
2022-09-03T07:54:07.898Z,2.05
2022-09-03T07:58:58.035Z,1.82
2022-09-03T08:03:55.016Z,2.03
2022-09-03T08:08:53.836Z,1.71
2022-09-03T08:13:53.287Z,1.56
2022-09-03T08:18:53.567Z,3.92
2022-09-03T08:23:52.296Z,3.83
2022-09-03T08:28:52.195Z,5.27
2022-09-03T08:33:50.546Z,5.13
2022-09-03T08:38:49.919Z,2.95
2022-09-03T08:43:47.132Z,2.8
2022-09-03T08:48:46.673Z,4.31
2022-09-03T08:53:46.100Z,5.96
2022-09-03T08:58:45.903Z,9.08
2022-09-03T09:03:45.008Z,7
2022-09-03T09:08:44.740Z,5.49
2022-09-03T09:13:43.763Z,4.49
2022-09-03T09:18:43.186Z,2.59
2022-09-03T09:23:41.914Z,2.44
2022-09-03T09:28:39.742Z,2.87
2022-09-03T09:33:38.605Z,3.45
2022-09-03T09:38:38.053Z,6.42
2022-09-03T09:43:37.486Z,7.96
2022-09-03T09:48:37.050Z,9.87
2022-09-03T09:53:36.583Z,9.92
2022-09-03T09:58:36.001Z,12.03
2022-09-03T09:59:58.595Z,12.99
2022-09-03T10:04:56.798Z,10.18
2022-09-03T10:09:58.014Z,12.26
2022-09-03T10:14:54.901Z,12.12
2022-09-03T10:19:54.494Z,22.55
2022-09-03T10:24:54.733Z,14.04
2022-09-03T10:29:54.231Z,11.42
2022-09-03T10:34:54.290Z,11.61
2022-09-03T10:39:55.312Z,12.42
2022-09-03T10:44:52.517Z,22.32
2022-09-03T10:49:51.075Z,7.21
2022-09-03T10:54:50.425Z,5.76
2022-09-03T10:58:58.556Z,5.79
2022-09-03T11:03:58.138Z,4.74
2022-09-03T11:08:57.173Z,5.93
2022-09-03T11:13:57.026Z,6.5
2022-09-03T11:18:55.700Z,7.45
2022-09-03T11:23:57.379Z,8.48
2022-09-03T11:28:53.687Z,17.89
2022-09-03T11:33:52.515Z,14.83
2022-09-03T11:38:52.240Z,10.68
2022-09-03T11:43:51.923Z,11.72
2022-09-03T11:48:51.053Z,13.81
2022-09-03T11:53:50.934Z,19.36
2022-09-03T11:58:50.462Z,24.86
2022-09-03T12:03:50.433Z,23.75
2022-09-03T12:08:49.624Z,20.63
2022-09-03T12:13:49.961Z,10.29
2022-09-03T12:18:46.784Z,9.96
2022-09-03T12:23:46.224Z,19.17
2022-09-03T12:28:46.738Z,22.89
2022-09-03T12:33:44.973Z,15.35
2022-09-03T12:39:14.793Z,26.69
2022-09-03T12:43:52.793Z,25.55
2022-09-03T12:48:47.134Z,7.81
2022-09-03T12:53:43.703Z,19.35
2022-09-03T12:58:44.010Z,10.83
2022-09-03T13:03:39.945Z,12.33
2022-09-03T13:08:38.780Z,4.46
2022-09-03T13:13:37.788Z,3.5
2022-09-03T13:18:37.654Z,7.8
2022-09-03T13:23:36.922Z,21.45
2022-09-03T13:28:36.252Z,23.72
2022-09-03T13:33:35.070Z,15.64
2022-09-03T13:38:39.338Z,22.28
2022-09-03T13:51:23.424Z,18.42
2022-09-03T13:59:25.261Z,19.23
2022-09-03T14:04:45.252Z,18.57
2022-09-03T14:09:45.097Z,17.32
2022-09-03T14:14:44.908Z,17.8
2022-09-03T14:19:43.623Z,16.11
2022-09-03T14:24:43.501Z,14.54
2022-09-03T14:29:42.787Z,14.18
2022-09-03T14:34:42.042Z,12.14
2022-09-03T14:39:41.849Z,11.26
2022-09-03T14:44:39.267Z,11.8
2022-09-03T14:49:38.264Z,7.18
2022-09-03T14:54:38.241Z,5.07
2022-09-03T14:59:00.656Z,4.33
2022-09-03T15:03:59.936Z,4.2
2022-09-03T15:08:56.732Z,4.21
2022-09-03T15:14:20.499Z,3.98
2022-09-03T15:18:55.593Z,3.59
2022-09-03T15:23:56.685Z,3.18
2022-09-03T15:28:54.533Z,2.77
2022-09-03T15:33:54.515Z,2.48
2022-09-03T15:38:53.766Z,2.37
2022-09-03T15:43:52.014Z,2.41
2022-09-03T15:48:51.560Z,2.35
2022-09-03T15:53:50.461Z,2.42
2022-09-03T15:58:49.638Z,2.6
2022-09-03T16:03:48.354Z,2.64
2022-09-03T16:08:47.185Z,2.54
2022-09-03T16:13:47.512Z,2.52
2022-09-03T16:18:51.692Z,2.72
2022-09-03T16:23:48.856Z,3.23
2022-09-03T16:28:44.142Z,3.57
2022-09-03T16:33:44.162Z,3.71
2022-09-03T16:38:44.455Z,3.34
2022-09-03T16:43:44.827Z,2.85
2022-09-03T16:48:43.606Z,2.57
2022-09-03T16:53:43.056Z,2.09
2022-09-03T16:58:42.169Z,1.78
2022-09-03T17:00:03.362Z,1.74
2022-09-03T17:05:02.068Z,1.58
2022-09-03T17:10:01.097Z,1.42
2022-09-03T17:15:01.593Z,1.26
2022-09-03T17:19:59.718Z,1.09
2022-09-03T17:24:58.919Z,0.92
2022-09-03T17:29:57.813Z,0.76
2022-09-03T17:34:57.900Z,0.62
2022-09-03T17:39:57.819Z,0.49
2022-09-03T17:44:56.193Z,0.38
2022-09-03T17:49:54.883Z,0.3
2022-09-03T17:54:55.606Z,0.29
2022-09-03T17:58:56.832Z,0.25
2022-09-03T18:03:56.706Z,0.18
2022-09-03T18:08:56.892Z,0.13
2022-09-03T18:13:54.055Z,0.09
2022-09-03T18:18:56.337Z,0.07
2022-09-03T18:23:54.303Z,0.06
2022-09-03T18:28:53.253Z,0.06
2022-09-03T18:33:52.077Z,0.05
2022-09-03T18:38:51.623Z,0.05
2022-09-03T18:43:51.742Z,0.05
2022-09-03T18:48:50.959Z,0.05
2022-09-03T18:53:49.856Z,0.05
2022-09-03T18:58:48.829Z,0.05
2022-09-03T19:03:48.750Z,0.05
2022-09-03T19:08:47.859Z,0.05
2022-09-03T19:13:47.207Z,0.05
2022-09-03T19:18:46.069Z,0.05
2022-09-03T19:23:47.672Z,0.05
2022-09-03T19:28:45.045Z,0.05
2022-09-03T19:33:44.840Z,0.05
2022-09-03T19:38:43.164Z,0.05
2022-09-03T19:43:42.392Z,0.05
2022-09-03T19:48:42.366Z,0.05
2022-09-03T19:53:41.639Z,0.05
2022-09-03T19:58:46.138Z,0.05
2022-09-03T20:03:39.258Z,0.05
2022-09-03T20:08:40.029Z,0.05
2022-09-03T20:13:38.780Z,0.05
2022-09-03T20:18:39.080Z,0.05
2022-09-03T20:23:36.192Z,0.05
2022-09-03T20:28:35.988Z,0.05
2022-09-03T20:33:36.299Z,0.05
2022-09-03T20:38:35.052Z,0.05
2022-09-03T20:43:33.438Z,0.05
2022-09-03T20:48:33.728Z,0.05
2022-09-03T20:53:33.494Z,0.05
2022-09-03T20:58:32.124Z,0.05
2022-09-03T20:59:53.717Z,0.05
2022-09-03T21:04:53.981Z,0.05
2022-09-03T21:09:55.055Z,0.05
2022-09-03T21:14:53.221Z,0.05
2022-09-03T21:19:49.512Z,0.05
2022-09-03T21:24:49.247Z,0.05
2022-09-03T21:29:52.509Z,0.05
2022-09-03T21:34:48.973Z,0.05
2022-09-03T21:39:46.603Z,0.05
2022-09-03T21:44:46.010Z,0.05
2022-09-03T21:49:46.070Z,0.05
2022-09-03T21:54:45.240Z,0.05
2022-09-03T21:59:11.198Z,0.05
2022-09-03T22:04:05.991Z,0.05
2022-09-03T22:09:05.478Z,0.05
2022-09-03T22:14:04.890Z,0.05
2022-09-03T22:19:04.521Z,0.05
2022-09-03T22:24:03.089Z,0.05
2022-09-03T22:29:06.252Z,0.05
2022-09-03T22:34:03.108Z,0.05
2022-09-03T22:39:01.404Z,0.05
2022-09-03T22:44:01.248Z,0.05
2022-09-03T22:49:00.626Z,0.05
2022-09-03T22:54:01.856Z,0.05
2022-09-03T22:58:58.546Z,0.05
2022-09-03T23:03:58.942Z,0.05
2022-09-03T23:08:58.183Z,0.05
2022-09-03T23:13:58.717Z,0.05
2022-09-03T23:18:57.006Z,0.05
2022-09-03T23:23:56.595Z,0.05
2022-09-03T23:28:55.992Z,0.05
2022-09-03T23:33:55.437Z,0.05
2022-09-03T23:38:54.775Z,0.05
2022-09-03T23:43:52.982Z,0.05
2022-09-03T23:48:52.684Z,0.05
2022-09-03T23:53:52.260Z,0.05
2022-09-03T23:58:51.774Z,0.05
